createdAt,value
2022-12-04T00:00:22.440Z,86.92
2022-12-04T00:01:45.326Z,87.21
2022-12-04T00:02:48.377Z,87.12
2022-12-04T00:03:55.562Z,87.01
2022-12-04T00:04:59.086Z,86.82
2022-12-04T00:06:13.592Z,87.09
2022-12-04T00:07:17.202Z,87.07
2022-12-04T00:08:20.151Z,87.19
2022-12-04T00:09:23.396Z,87.06
2022-12-04T00:10:26.486Z,87.29
2022-12-04T00:11:31.451Z,87.08
2022-12-04T00:12:35.092Z,87.11
2022-12-04T00:13:39.014Z,87.01
2022-12-04T00:15:22.998Z,86.95
2022-12-04T00:16:06.799Z,86.91
2022-12-04T00:17:09.939Z,87.35
2022-12-04T00:18:12.892Z,87.01
2022-12-04T00:19:16.455Z,87.04
2022-12-04T00:20:20.040Z,87.06
2022-12-04T00:21:24.705Z,87.10
2022-12-04T00:22:27.704Z,86.82
2022-12-04T00:23:30.658Z,86.85
2022-12-04T00:24:34.809Z,87.08
2022-12-04T00:25:41.088Z,86.79
2022-12-04T00:26:44.595Z,86.71
2022-12-04T00:27:47.835Z,86.66
2022-12-04T00:28:51.909Z,86.96
2022-12-04T00:29:55.123Z,87.07
2022-12-04T00:30:58.221Z,87.03
2022-12-04T00:32:01.245Z,87.03
2022-12-04T00:33:04.439Z,87.08
2022-12-04T00:34:08.390Z,87.18
2022-12-04T00:35:11.438Z,87.18
2022-12-04T00:36:17.353Z,87.06
2022-12-04T00:37:20.555Z,87.18
2022-12-04T00:38:23.684Z,87.34
2022-12-04T00:39:26.620Z,87.18
2022-12-04T00:40:29.584Z,86.99
2022-12-04T00:41:33.412Z,87.19
2022-12-04T00:42:36.635Z,87.21
2022-12-04T00:43:40.298Z,87.26
2022-12-04T00:44:43.396Z,87.14
2022-12-04T00:45:46.408Z,87.14
2022-12-04T00:46:49.331Z,87.13
2022-12-04T00:47:52.331Z,87.17
2022-12-04T00:48:56.184Z,87.13
2022-12-04T00:49:59.176Z,87.18
2022-12-04T00:51:05.548Z,87.05
2022-12-04T00:52:08.513Z,87.13
2022-12-04T00:53:12.725Z,87.16
2022-12-04T00:54:15.919Z,87.18
2022-12-04T00:55:18.996Z,87.19
2022-12-04T00:56:25.818Z,86.97
2022-12-04T00:57:29.782Z,87.06
2022-12-04T00:58:32.984Z,87.23
2022-12-04T00:59:37.980Z,87.22
2022-12-04T01:00:42.621Z,87.19
2022-12-04T01:01:45.736Z,87.25
2022-12-04T01:02:48.858Z,87.38
2022-12-04T01:03:52.626Z,87.31
2022-12-04T01:04:55.832Z,87.16
2022-12-04T01:05:58.897Z,87.22
2022-12-04T01:07:05.170Z,86.99
2022-12-04T01:08:09.690Z,87.16
2022-12-04T01:09:12.927Z,87.17
2022-12-04T01:10:16.136Z,87.30
2022-12-04T01:11:20.596Z,87.05
2022-12-04T01:12:23.583Z,87.01
2022-12-04T01:13:27.149Z,87.09
2022-12-04T01:14:30.262Z,87.24
2022-12-04T01:15:33.513Z,87.20
2022-12-04T01:16:39.368Z,87.28
2022-12-04T01:17:42.481Z,87.52
2022-12-04T01:18:46.251Z,87.43
2022-12-04T01:19:50.125Z,87.46
2022-12-04T01:20:53.278Z,87.45
2022-12-04T01:21:56.224Z,87.45
2022-12-04T01:22:59.168Z,87.55
2022-12-04T01:24:02.374Z,87.56
2022-12-04T01:25:05.768Z,87.72
2022-12-04T01:26:08.888Z,87.65
2022-12-04T01:27:11.811Z,87.76
2022-12-04T01:28:14.700Z,87.72
2022-12-04T01:29:17.702Z,87.58
2022-12-04T01:30:20.709Z,87.71
2022-12-04T01:31:24.147Z,87.84
2022-12-04T01:32:27.183Z,87.72
2022-12-04T01:33:31.890Z,87.91
2022-12-04T01:34:36.074Z,87.86
2022-12-04T01:35:39.358Z,87.97
2022-12-04T01:36:42.691Z,88.10
2022-12-04T01:37:45.633Z,88.12
2022-12-04T01:38:48.989Z,88.06
2022-12-04T01:39:52.122Z,88.02
2022-12-04T01:40:55.971Z,88.06
2022-12-04T01:41:59.115Z,88.08
2022-12-04T01:43:02.062Z,87.97
2022-12-04T01:44:08.974Z,87.90
2022-12-04T01:45:42.157Z,88.01
2022-12-04T01:46:47.988Z,88.15
2022-12-04T01:47:56.026Z,87.86
2022-12-04T01:48:59.264Z,88.21
2022-12-04T01:50:02.445Z,88.05
2022-12-04T01:51:30.788Z,87.88
2022-12-04T01:52:33.900Z,88.28
2022-12-04T01:53:42.608Z,88.29
2022-12-04T01:54:49.837Z,88.51
2022-12-04T01:55:53.304Z,88.75
2022-12-04T01:57:17.783Z,88.52
2022-12-04T01:58:26.428Z,88.42
2022-12-04T01:59:34.757Z,88.49
2022-12-04T02:00:38.091Z,88.37
2022-12-04T02:01:52.367Z,88.55
2022-12-04T02:02:55.647Z,88.41
2022-12-04T02:04:00.802Z,88.48
2022-12-04T02:05:06.692Z,88.61
2022-12-04T02:06:09.783Z,88.60
2022-12-04T02:07:12.909Z,88.59
2022-12-04T02:08:16.223Z,88.32
2022-12-04T02:09:26.182Z,88.46
2022-12-04T02:10:42.252Z,88.70
2022-12-04T02:12:32.917Z,88.61
2022-12-04T02:13:47.609Z,88.64
2022-12-04T02:15:21.716Z,88.55
2022-12-04T02:16:27.387Z,88.63
2022-12-04T02:17:38.877Z,88.60
2022-12-04T02:19:07.864Z,88.79
2022-12-04T02:20:29.052Z,88.44
2022-12-04T02:21:37.410Z,88.87
2022-12-04T02:23:08.298Z,88.79
2022-12-04T02:24:30.146Z,88.76
2022-12-04T02:25:44.248Z,88.77
2022-12-04T02:26:53.904Z,88.81
2022-12-04T02:27:59.936Z,88.83
2022-12-04T02:29:26.792Z,88.95
2022-12-04T02:32:10.997Z,88.88
2022-12-04T02:33:19.450Z,88.96
2022-12-04T02:34:28.987Z,89.05
2022-12-04T02:35:41.223Z,88.98
2022-12-04T02:36:52.771Z,89.21
2022-12-04T02:38:34.451Z,89.19
2022-12-04T02:39:46.811Z,89.04
2022-12-04T02:41:03.239Z,89.09
2022-12-04T02:42:35.608Z,89.20
2022-12-04T02:43:50.924Z,89.03
2022-12-04T02:44:59.172Z,88.96
2022-12-04T02:46:23.946Z,89.04
2022-12-04T02:47:28.081Z,89.15
2022-12-04T02:48:34.245Z,89.34
2022-12-04T02:49:49.763Z,89.28
2022-12-04T02:50:57.694Z,89.23
2022-12-04T02:52:03.320Z,89.10
2022-12-04T02:53:12.489Z,89.24
2022-12-04T02:54:35.878Z,89.05
2022-12-04T02:55:53.773Z,89.37
2022-12-04T02:57:00.108Z,89.29
2022-12-04T02:58:09.514Z,89.30
2022-12-04T02:59:20.931Z,89.27
2022-12-04T03:00:24.252Z,89.27
2022-12-04T03:01:32.579Z,89.47
2022-12-04T03:02:47.258Z,89.31
2022-12-04T03:03:53.933Z,89.26
2022-12-04T03:05:00.934Z,89.38
2022-12-04T03:06:11.659Z,89.39
2022-12-04T03:07:19.672Z,89.50
2022-12-04T03:08:29.258Z,89.32
2022-12-04T03:09:58.313Z,89.14
2022-12-04T03:11:02.162Z,89.22
2022-12-04T03:12:20.607Z,89.39
2022-12-04T03:13:30.140Z,89.34
2022-12-04T03:14:37.845Z,89.50
2022-12-04T03:15:45.256Z,89.55
2022-12-04T03:16:51.317Z,89.66
2022-12-04T03:18:10.241Z,89.74
2022-12-04T03:19:24.722Z,89.56
2022-12-04T03:20:32.188Z,89.56
2022-12-04T03:21:38.419Z,89.63
2022-12-04T03:22:45.071Z,89.71
2022-12-04T03:23:55.177Z,89.51
2022-12-04T03:24:58.637Z,89.69
2022-12-04T03:26:10.555Z,89.64
2022-12-04T03:27:19.055Z,89.75
2022-12-04T03:28:33.262Z,89.70
2022-12-04T03:29:44.167Z,89.47
2022-12-04T03:30:56.569Z,89.69
2022-12-04T03:32:29.860Z,89.29
2022-12-04T03:33:44.401Z,89.59
2022-12-04T03:34:53.342Z,89.59
2022-12-04T03:36:03.453Z,89.68
2022-12-04T03:37:15.555Z,89.79
2022-12-04T03:38:41.096Z,89.90
2022-12-04T03:40:07.989Z,89.68
2022-12-04T03:41:25.688Z,89.61
2022-12-04T03:43:02.842Z,89.67
2022-12-04T03:44:08.497Z,89.79
2022-12-04T03:45:14.414Z,89.79
2022-12-04T03:46:47.415Z,89.84
2022-12-04T03:48:06.735Z,89.97
2022-12-04T03:49:21.576Z,90.09
2022-12-04T03:50:38.866Z,90.15
2022-12-04T03:51:52.278Z,90.26
2022-12-04T03:53:04.744Z,90.43
2022-12-04T03:54:21.360Z,90.37
2022-12-04T03:55:39.242Z,90.01
2022-12-04T03:56:48.835Z,90.14
2022-12-04T03:57:56.672Z,90.38
2022-12-04T03:59:07.338Z,90.28
2022-12-04T04:00:16.734Z,90.40
2022-12-04T04:01:25.315Z,90.21
2022-12-04T04:02:45.257Z,90.35
2022-12-04T04:03:52.008Z,90.32
2022-12-04T04:04:58.935Z,90.50
2022-12-04T04:06:07.604Z,90.29
2022-12-04T04:07:34.841Z,90.40
2022-12-04T04:08:43.378Z,90.73
2022-12-04T04:09:50.789Z,90.63
2022-12-04T04:11:02.980Z,90.64
2022-12-04T04:12:15.576Z,90.83
2022-12-04T04:13:41.727Z,90.68
2022-12-04T04:15:12.376Z,90.62
2022-12-04T04:16:38.447Z,90.71
2022-12-04T04:17:48.428Z,90.67
2022-12-04T04:19:12.394Z,91.03
2022-12-04T04:20:56.427Z,90.85
2022-12-04T04:22:21.735Z,91.13
2022-12-04T04:23:48.571Z,90.80
2022-12-04T04:25:09.935Z,91.00
2022-12-04T04:26:14.196Z,90.99
2022-12-04T04:27:17.379Z,90.79
2022-12-04T04:28:46.752Z,91.02
2022-12-04T04:29:52.693Z,90.90
2022-12-04T04:31:05.447Z,91.17
2022-12-04T04:32:25.766Z,91.51
2022-12-04T04:33:30.526Z,91.53
2022-12-04T04:34:36.499Z,91.36
2022-12-04T04:35:55.255Z,91.28
2022-12-04T04:37:35.975Z,91.22
2022-12-04T04:38:51.188Z,91.12
2022-12-04T04:40:06.495Z,91.19
2022-12-04T04:41:24.433Z,91.57
2022-12-04T04:42:36.548Z,91.72
2022-12-04T04:43:59.529Z,91.86
2022-12-04T04:45:09.252Z,91.78
2022-12-04T04:46:18.819Z,91.88
2022-12-04T04:47:34.467Z,91.90
2022-12-04T04:48:51.164Z,92.10
2022-12-04T04:49:57.365Z,91.98
2022-12-04T04:51:03.007Z,91.76
2022-12-04T04:52:06.564Z,91.85
2022-12-04T04:53:19.030Z,91.90
2022-12-04T04:54:22.982Z,91.76
2022-12-04T04:55:26.693Z,91.73
2022-12-04T04:56:30.619Z,92.12
2022-12-04T04:57:36.653Z,92.05
2022-12-04T04:58:39.717Z,92.13
2022-12-04T04:59:42.769Z,92.09
2022-12-04T05:00:59.438Z,91.97
2022-12-04T05:02:02.681Z,92.23
2022-12-04T05:03:06.676Z,92.40
2022-12-04T05:04:10.898Z,92.53
2022-12-04T05:05:14.085Z,92.63
2022-12-04T05:06:17.107Z,92.38
2022-12-04T05:07:20.077Z,92.62
2022-12-04T05:08:23.747Z,92.41
2022-12-04T05:09:26.970Z,92.41
2022-12-04T05:10:29.898Z,92.24
2022-12-04T05:11:33.043Z,92.10
2022-12-04T05:12:36.548Z,92.33
2022-12-04T05:13:39.873Z,92.19
2022-12-04T05:14:42.784Z,92.31
2022-12-04T05:15:55.245Z,92.59
2022-12-04T05:17:01.832Z,92.43
2022-12-04T05:18:05.535Z,92.47
2022-12-04T05:19:27.385Z,92.22
2022-12-04T05:20:30.348Z,92.30
2022-12-04T05:21:34.496Z,92.28
2022-12-04T05:22:37.474Z,92.57
2022-12-04T05:23:40.676Z,92.55
2022-12-04T05:24:43.642Z,92.82
2022-12-04T05:25:46.778Z,92.85
2022-12-04T05:26:49.845Z,92.63
2022-12-04T05:27:52.762Z,92.41
2022-12-04T05:28:55.880Z,92.51
2022-12-04T05:30:00.809Z,92.74
2022-12-04T05:31:04.414Z,92.79
2022-12-04T05:32:07.414Z,93.00
2022-12-04T05:33:10.706Z,93.14
2022-12-04T05:34:13.864Z,93.06
2022-12-04T05:35:17.299Z,93.28
2022-12-04T05:36:20.230Z,93.23
2022-12-04T05:37:24.683Z,93.39
2022-12-04T05:38:27.935Z,93.17
2022-12-04T05:39:31.039Z,92.94
2022-12-04T05:40:33.923Z,93.01
2022-12-04T05:41:36.834Z,93.21
2022-12-04T05:42:40.063Z,92.95
2022-12-04T05:43:43.070Z,93.43
2022-12-04T05:44:46.215Z,93.13
2022-12-04T05:45:49.255Z,93.48
2022-12-04T05:46:52.254Z,93.37
2022-12-04T05:47:55.312Z,93.43
2022-12-04T05:48:58.297Z,93.08
2022-12-04T05:50:01.403Z,93.03
2022-12-04T05:51:08.454Z,93.07
2022-12-04T05:52:11.437Z,93.18
2022-12-04T05:53:14.427Z,93.47
2022-12-04T05:54:19.075Z,93.37
2022-12-04T05:55:22.317Z,93.39
2022-12-04T05:56:25.226Z,93.38
2022-12-04T05:57:30.021Z,93.40
2022-12-04T05:58:38.262Z,93.45
2022-12-04T05:59:41.308Z,93.60
2022-12-04T06:00:44.474Z,93.83
2022-12-04T06:01:47.576Z,93.76
2022-12-04T06:02:50.921Z,93.49
2022-12-04T06:03:54.173Z,93.87
2022-12-04T06:04:57.079Z,93.81
2022-12-04T06:06:00.111Z,93.55
2022-12-04T06:07:03.058Z,93.57
2022-12-04T06:08:06.061Z,93.58
2022-12-04T06:09:09.449Z,93.47
2022-12-04T06:10:12.390Z,93.42
2022-12-04T06:11:22.388Z,93.40
2022-12-04T06:12:25.291Z,93.54
2022-12-04T06:13:28.181Z,93.76
2022-12-04T06:14:36.313Z,94.06
2022-12-04T06:15:42.609Z,93.86
2022-12-04T06:16:46.450Z,93.78
2022-12-04T06:17:49.571Z,93.90
2022-12-04T06:18:56.761Z,93.93
2022-12-04T06:20:00.385Z,93.91
2022-12-04T06:21:03.648Z,94.11
2022-12-04T06:22:06.758Z,94.14
2022-12-04T06:23:09.719Z,93.80
2022-12-04T06:24:15.719Z,94.12
2022-12-04T06:25:18.737Z,94.17
2022-12-04T06:26:22.679Z,94.41
2022-12-04T06:27:27.772Z,94.39
2022-12-04T06:28:32.018Z,94.54
2022-12-04T06:29:34.986Z,94.48
2022-12-04T06:30:37.866Z,94.34
2022-12-04T06:31:41.997Z,94.42
2022-12-04T06:32:45.226Z,94.37
2022-12-04T06:33:48.462Z,94.48
2022-12-04T06:34:53.118Z,94.61
2022-12-04T06:36:18.527Z,94.65
2022-12-04T06:37:24.269Z,94.69
2022-12-04T06:38:28.031Z,94.71
2022-12-04T06:39:31.148Z,94.22
2022-12-04T06:40:34.157Z,94.28
2022-12-04T06:41:37.272Z,94.39
2022-12-04T06:42:40.327Z,94.44
2022-12-04T06:43:43.837Z,94.56
2022-12-04T06:44:46.771Z,94.74
2022-12-04T06:45:58.852Z,94.76
2022-12-04T06:47:01.974Z,94.81
2022-12-04T06:48:05.035Z,94.50
2022-12-04T06:49:10.156Z,94.51
2022-12-04T06:50:13.661Z,94.63
2022-12-04T06:51:19.489Z,94.53
2022-12-04T06:52:22.712Z,94.46
2022-12-04T06:53:27.800Z,94.16
2022-12-04T06:54:30.831Z,94.29
2022-12-04T06:55:33.758Z,94.58
2022-12-04T06:56:36.769Z,94.70
2022-12-04T06:57:39.817Z,94.86
2022-12-04T06:58:42.711Z,95.15
2022-12-04T06:59:45.909Z,95.18
2022-12-04T07:00:49.007Z,95.09
2022-12-04T07:01:52.060Z,95.06
2022-12-04T07:02:55.204Z,95.30
2022-12-04T07:03:59.312Z,95.15
2022-12-04T07:05:02.446Z,94.94
2022-12-04T07:06:16.436Z,94.97
2022-12-04T07:07:19.387Z,94.92
2022-12-04T07:08:22.335Z,95.15
2022-12-04T07:09:25.252Z,95.18
2022-12-04T07:10:28.347Z,95.00
2022-12-04T07:11:32.091Z,94.98
2022-12-04T07:12:34.979Z,95.30
2022-12-04T07:13:38.192Z,95.23
2022-12-04T07:14:41.238Z,95.34
2022-12-04T07:15:44.247Z,95.21
2022-12-04T07:16:47.247Z,95.14
2022-12-04T07:17:50.257Z,95.41
2022-12-04T07:18:54.014Z,95.31
2022-12-04T07:19:57.394Z,95.14
2022-12-04T07:21:04.272Z,94.99
2022-12-04T07:22:09.036Z,95.21
2022-12-04T07:23:12.031Z,94.90
2022-12-04T07:24:18.112Z,94.84
2022-12-04T07:25:21.092Z,95.07
2022-12-04T07:26:25.667Z,94.92
2022-12-04T07:27:30.910Z,95.06
2022-12-04T07:28:34.941Z,95.29
2022-12-04T07:29:38.067Z,95.41
2022-12-04T07:30:41.014Z,95.47
2022-12-04T07:31:44.633Z,95.51
2022-12-04T07:32:47.829Z,95.37
2022-12-04T07:33:51.322Z,95.35
2022-12-04T07:34:54.198Z,95.16
2022-12-04T07:35:58.816Z,94.74
2022-12-04T07:37:02.020Z,94.97
2022-12-04T07:38:05.171Z,95.14
2022-12-04T07:39:08.339Z,95.02
2022-12-04T07:40:12.209Z,95.35
2022-12-04T07:41:16.559Z,95.34
2022-12-04T07:42:24.082Z,95.35
2022-12-04T07:43:29.560Z,95.20
2022-12-04T07:44:32.740Z,95.28
2022-12-04T07:45:37.067Z,95.32
2022-12-04T07:46:40.058Z,95.03
2022-12-04T07:47:43.595Z,95.12
2022-12-04T07:48:46.646Z,95.29
2022-12-04T07:49:49.705Z,95.49
2022-12-04T07:51:05.815Z,95.15
2022-12-04T07:52:08.819Z,95.28
2022-12-04T07:53:12.437Z,95.24
2022-12-04T07:54:15.819Z,95.12
2022-12-04T07:55:23.117Z,95.09
2022-12-04T07:56:26.678Z,95.16
2022-12-04T07:57:29.686Z,95.28
2022-12-04T07:58:33.861Z,95.22
2022-12-04T07:59:36.890Z,95.26
2022-12-04T08:00:39.925Z,95.45
2022-12-04T08:01:43.020Z,95.53
2022-12-04T08:02:46.014Z,95.36
2022-12-04T08:03:51.462Z,95.39
2022-12-04T08:04:54.537Z,95.37
2022-12-04T08:06:01.307Z,95.37
2022-12-04T08:07:04.295Z,95.27
2022-12-04T08:08:07.331Z,95.48
2022-12-04T08:09:10.600Z,95.38
2022-12-04T08:10:14.650Z,95.32
2022-12-04T08:11:22.211Z,95.29
2022-12-04T08:12:25.387Z,95.31
2022-12-04T08:13:28.679Z,95.45
2022-12-04T08:14:31.700Z,95.38
2022-12-04T08:15:35.484Z,95.67
2022-12-04T08:16:38.712Z,95.66
2022-12-04T08:17:41.744Z,95.57
2022-12-04T08:18:48.495Z,95.63
2022-12-04T08:19:51.797Z,95.76
2022-12-04T08:20:54.831Z,95.75
2022-12-04T08:21:57.865Z,95.40
2022-12-04T08:23:00.911Z,95.24
2022-12-04T08:24:03.997Z,95.06
2022-12-04T08:25:07.445Z,95.25
2022-12-04T08:26:11.813Z,95.32
2022-12-04T08:27:14.827Z,95.53
2022-12-04T08:28:18.693Z,95.79
2022-12-04T08:29:21.663Z,95.71
2022-12-04T08:30:24.785Z,95.38
2022-12-04T08:31:30.086Z,95.46
2022-12-04T08:32:33.901Z,95.27
2022-12-04T08:33:37.074Z,95.23
2022-12-04T08:34:39.994Z,95.51
2022-12-04T08:35:43.046Z,95.55
2022-12-04T08:36:46.019Z,95.71
2022-12-04T08:37:49.104Z,95.64
2022-12-04T08:38:52.532Z,95.80
2022-12-04T08:39:55.617Z,95.89
2022-12-04T08:41:03.653Z,95.53
2022-12-04T08:42:06.691Z,95.39
2022-12-04T08:43:09.654Z,95.54
2022-12-04T08:44:12.640Z,95.53
2022-12-04T08:45:15.697Z,95.40
2022-12-04T08:46:18.997Z,95.63
2022-12-04T08:47:22.169Z,95.84
2022-12-04T08:48:25.192Z,95.65
2022-12-04T08:49:28.169Z,95.63
2022-12-04T08:50:31.202Z,95.72
2022-12-04T08:51:35.608Z,95.91
2022-12-04T08:52:38.632Z,95.83
2022-12-04T08:53:41.937Z,95.95
2022-12-04T08:54:44.892Z,95.90
2022-12-04T08:55:48.454Z,95.89
2022-12-04T08:56:51.435Z,95.84
2022-12-04T08:57:54.827Z,95.83
2022-12-04T08:58:58.647Z,95.68
2022-12-04T09:00:01.910Z,95.67
2022-12-04T09:01:10.321Z,95.55
2022-12-04T09:02:13.417Z,95.45
2022-12-04T09:03:18.997Z,95.67
2022-12-04T09:04:22.065Z,95.64
2022-12-04T09:05:25.184Z,95.67
2022-12-04T09:06:28.105Z,95.74
2022-12-04T09:07:31.264Z,95.53
2022-12-04T09:08:35.535Z,95.40
2022-12-04T09:09:41.269Z,95.61
2022-12-04T09:10:47.948Z,95.64
2022-12-04T09:11:50.934Z,95.68
2022-12-04T09:12:53.992Z,95.69
2022-12-04T09:13:56.996Z,95.72
2022-12-04T09:14:59.991Z,95.74
2022-12-04T09:16:05.183Z,95.92
2022-12-04T09:17:08.334Z,95.69
2022-12-04T09:18:11.495Z,95.62
2022-12-04T09:19:14.413Z,95.58
2022-12-04T09:20:17.430Z,95.49
2022-12-04T09:21:22.153Z,95.69
2022-12-04T09:22:25.123Z,95.66
2022-12-04T09:23:28.668Z,95.51
2022-12-04T09:24:32.096Z,95.36
2022-12-04T09:25:36.663Z,95.62
2022-12-04T09:26:39.996Z,95.86
2022-12-04T09:27:43.552Z,95.47
2022-12-04T09:28:46.799Z,95.77
2022-12-04T09:29:49.762Z,95.83
2022-12-04T09:31:04.690Z,95.44
2022-12-04T09:32:07.700Z,95.73
2022-12-04T09:33:10.949Z,95.79
2022-12-04T09:34:14.235Z,95.60
2022-12-04T09:35:17.246Z,95.46
2022-12-04T09:36:20.833Z,95.62
2022-12-04T09:37:23.881Z,95.60
2022-12-04T09:38:27.973Z,95.84
2022-12-04T09:39:31.064Z,95.77
2022-12-04T09:40:42.926Z,95.71
2022-12-04T09:42:03.523Z,95.80
2022-12-04T09:43:15.933Z,96.09
2022-12-04T09:44:27.734Z,96.16
2022-12-04T09:45:43.190Z,96.01
2022-12-04T09:46:51.159Z,95.91
2022-12-04T09:47:58.291Z,95.42
2022-12-04T09:49:14.538Z,95.71
2022-12-04T09:50:34.594Z,95.64
2022-12-04T09:51:40.510Z,95.74
2022-12-04T09:52:58.316Z,95.73
2022-12-04T09:54:07.945Z,95.69
2022-12-04T09:55:18.018Z,95.81
2022-12-04T09:56:24.855Z,96.12
2022-12-04T09:57:49.320Z,95.97
2022-12-04T09:58:58.288Z,95.68
2022-12-04T10:00:04.489Z,95.64
2022-12-04T10:01:23.142Z,95.77
2022-12-04T10:02:35.365Z,95.78
2022-12-04T10:03:39.980Z,95.92
2022-12-04T10:04:43.038Z,96.19
2022-12-04T10:05:53.788Z,96.14
2022-12-04T10:07:12.126Z,95.77
2022-12-04T10:08:23.073Z,95.86
2022-12-04T10:09:46.800Z,95.87
2022-12-04T10:11:03.584Z,95.93
2022-12-04T10:12:48.020Z,95.55
2022-12-04T10:13:57.523Z,95.55
2022-12-04T10:15:26.902Z,95.78
2022-12-04T10:16:38.847Z,95.84
2022-12-04T10:17:54.662Z,95.95
2022-12-04T10:19:12.952Z,95.74
2022-12-04T10:20:45.720Z,95.82
2022-12-04T10:22:05.795Z,95.78
2022-12-04T10:23:30.616Z,95.69
2022-12-04T10:24:46.634Z,95.79
2022-12-04T10:25:51.915Z,95.76
2022-12-04T10:26:57.783Z,95.85
2022-12-04T10:28:17.789Z,95.78
2022-12-04T10:29:24.324Z,95.85
2022-12-04T10:30:31.202Z,95.69
2022-12-04T10:31:37.677Z,95.77
2022-12-04T10:32:45.042Z,95.59
2022-12-04T10:33:53.639Z,95.53
2022-12-04T10:35:03.227Z,95.46
2022-12-04T10:36:10.258Z,95.61
2022-12-04T10:37:15.324Z,95.75
2022-12-04T10:38:40.079Z,95.65
2022-12-04T10:39:51.083Z,95.87
2022-12-04T10:41:10.105Z,95.91
2022-12-04T10:42:36.222Z,95.82
2022-12-04T10:43:46.931Z,96.01
2022-12-04T10:44:49.987Z,95.93
2022-12-04T10:45:53.090Z,95.55
2022-12-04T10:47:03.354Z,95.52
2022-12-04T10:48:08.153Z,95.68
2022-12-04T10:49:19.260Z,95.93
2022-12-04T10:50:24.471Z,95.94
2022-12-04T10:51:35.547Z,95.91
2022-12-04T10:52:38.548Z,96.02
2022-12-04T10:53:42.559Z,96.18
2022-12-04T10:55:06.166Z,95.97
2022-12-04T10:56:14.843Z,95.96
2022-12-04T10:57:18.139Z,96.28
2022-12-04T10:58:21.161Z,96.13
2022-12-04T10:59:25.371Z,96.01
2022-12-04T11:00:34.360Z,96.04
2022-12-04T11:01:37.827Z,96.02
2022-12-04T11:02:41.636Z,96.17
2022-12-04T11:03:47.141Z,96.28
2022-12-04T11:04:58.874Z,96.37
2022-12-04T11:06:05.500Z,96.48
2022-12-04T11:07:19.412Z,96.73
2022-12-04T11:08:50.075Z,96.50
2022-12-04T11:10:04.224Z,96.19
2022-12-04T11:11:14.391Z,96.32
2022-12-04T11:12:21.677Z,96.42
2022-12-04T11:13:24.699Z,96.45
2022-12-04T11:14:27.724Z,96.51
2022-12-04T11:15:34.756Z,96.31
2022-12-04T11:16:44.451Z,96.00
2022-12-04T11:17:47.416Z,96.19
2022-12-04T11:18:50.949Z,96.62
2022-12-04T11:20:05.947Z,96.44
2022-12-04T11:21:26.376Z,96.60
2022-12-04T11:22:29.329Z,96.22
2022-12-04T11:23:43.869Z,96.38
2022-12-04T11:24:53.294Z,96.22
2022-12-04T11:26:05.551Z,96.27
2022-12-04T11:27:33.054Z,96.38
2022-12-04T11:28:42.395Z,96.21
2022-12-04T11:29:46.793Z,96.18
2022-12-04T11:30:55.051Z,96.36
2022-12-04T11:32:05.605Z,96.19
2022-12-04T11:33:43.237Z,96.57
2022-12-04T11:34:46.554Z,96.34
2022-12-04T11:35:56.360Z,96.16
2022-12-04T11:36:59.775Z,96.49
2022-12-04T11:38:02.600Z,96.43
2022-12-04T11:39:20.401Z,96.51
2022-12-04T11:40:26.107Z,96.25
2022-12-04T11:41:31.683Z,96.32
2022-12-04T11:42:34.850Z,96.39
2022-12-04T11:43:49.845Z,96.55
2022-12-04T11:44:56.501Z,96.52
2022-12-04T11:46:02.847Z,96.56
2022-12-04T11:47:17.260Z,96.54
2022-12-04T11:48:21.268Z,96.42
2022-12-04T11:49:26.420Z,96.27
2022-12-04T11:50:43.471Z,96.12
2022-12-04T11:52:20.992Z,96.14
2022-12-04T11:53:46.928Z,96.09
2022-12-04T11:55:07.506Z,96.27
2022-12-04T11:56:19.845Z,96.67
2022-12-04T11:57:45.758Z,96.67
2022-12-04T11:59:17.644Z,96.62
2022-12-04T12:00:23.008Z,96.35
2022-12-04T12:01:44.960Z,96.24
2022-12-04T12:03:15.353Z,96.41
2022-12-04T12:04:56.153Z,96.46
2022-12-04T12:06:24.963Z,96.55
2022-12-04T12:07:58.957Z,96.61
2022-12-04T12:09:16.629Z,96.68
2022-12-04T12:10:29.206Z,96.41
2022-12-04T12:11:42.463Z,96.51
2022-12-04T12:12:56.665Z,96.28
2022-12-04T12:14:02.442Z,96.67
2022-12-04T12:15:14.593Z,96.48
2022-12-04T12:16:51.339Z,96.59
2022-12-04T12:18:26.008Z,96.65
2022-12-04T12:19:50.789Z,96.79
2022-12-04T12:21:20.013Z,96.70
2022-12-04T12:22:44.139Z,96.72
2022-12-04T12:24:01.443Z,97.01
2022-12-04T12:25:29.176Z,97.18
2022-12-04T12:27:03.290Z,96.98
2022-12-04T12:28:15.804Z,96.76
2022-12-04T12:29:29.469Z,97.05
2022-12-04T12:31:04.096Z,96.92
2022-12-04T12:32:22.469Z,96.76
2022-12-04T12:33:30.922Z,96.56
2022-12-04T12:34:46.157Z,96.49
2022-12-04T12:36:06.095Z,96.44
2022-12-04T12:37:16.870Z,96.90
2022-12-04T12:38:25.266Z,96.64
2022-12-04T12:39:40.157Z,96.68
2022-12-04T12:40:48.861Z,96.45
2022-12-04T12:41:59.687Z,97.04
2022-12-04T12:43:19.804Z,97.03
2022-12-04T12:44:29.633Z,97.07
2022-12-04T12:45:51.069Z,96.98
2022-12-04T12:47:05.396Z,96.79
2022-12-04T12:48:32.912Z,96.85
2022-12-04T12:49:48.675Z,97.10
2022-12-04T12:51:14.768Z,96.81
2022-12-04T12:52:38.908Z,96.90
2022-12-04T12:53:47.986Z,96.88
2022-12-04T12:55:25.868Z,97.09
2022-12-04T12:56:39.922Z,96.89
2022-12-04T12:58:04.792Z,96.82
2022-12-04T12:59:17.010Z,97.15
2022-12-04T13:00:21.865Z,97.08
2022-12-04T13:01:32.048Z,97.08
2022-12-04T13:02:59.558Z,97.00
2022-12-04T13:04:08.872Z,97.15
2022-12-04T13:05:14.386Z,96.98
2022-12-04T13:06:22.069Z,96.96
2022-12-04T13:07:36.855Z,96.82
2022-12-04T13:08:49.455Z,97.22
2022-12-04T13:10:07.450Z,97.08
2022-12-04T13:11:18.406Z,96.99
2022-12-04T13:12:23.822Z,97.29
2022-12-04T13:13:30.183Z,97.40
2022-12-04T13:14:33.231Z,97.60
2022-12-04T13:15:52.140Z,97.28
2022-12-04T13:17:03.831Z,97.45
2022-12-04T13:18:11.927Z,97.51
2022-12-04T13:19:33.298Z,97.34
2022-12-04T13:20:46.890Z,97.54
2022-12-04T13:22:44.378Z,97.46
2022-12-04T13:24:30.844Z,97.61
2022-12-04T13:26:09.231Z,97.59
2022-12-04T13:27:37.186Z,97.49
2022-12-04T13:29:03.722Z,97.76
2022-12-04T13:30:18.863Z,97.74
2022-12-04T13:31:49.474Z,97.69
2022-12-04T13:33:07.957Z,97.73
2022-12-04T13:34:29.121Z,97.56
2022-12-04T13:35:52.138Z,97.78
2022-12-04T13:37:01.350Z,97.88
2022-12-04T13:38:16.738Z,98.05
2022-12-04T13:39:31.859Z,98.04
2022-12-04T13:40:42.935Z,98.12
2022-12-04T13:41:46.128Z,98.01
2022-12-04T13:42:49.327Z,97.92
2022-12-04T13:43:53.955Z,98.08
2022-12-04T13:45:00.240Z,98.10
2022-12-04T13:46:07.218Z,98.19
2022-12-04T13:47:26.981Z,97.94
2022-12-04T13:48:36.817Z,97.83
2022-12-04T13:49:45.967Z,97.82
2022-12-04T13:50:49.053Z,97.97
2022-12-04T13:51:53.487Z,97.59
2022-12-04T13:52:57.083Z,97.54
2022-12-04T13:54:12.120Z,97.85
2022-12-04T13:55:36.090Z,97.68
2022-12-04T13:56:45.083Z,97.55
2022-12-04T13:58:14.182Z,97.60
2022-12-04T13:59:32.641Z,97.78
2022-12-04T14:00:37.825Z,97.96
2022-12-04T14:01:45.342Z,97.97
2022-12-04T14:02:54.580Z,98.16
2022-12-04T14:03:59.817Z,97.90
2022-12-04T14:05:06.945Z,97.88
2022-12-04T14:06:34.110Z,97.92
2022-12-04T14:07:39.975Z,98.02
2022-12-04T14:08:43.712Z,98.30
2022-12-04T14:09:53.435Z,98.24
2022-12-04T14:11:03.988Z,98.25
2022-12-04T14:12:12.754Z,97.99
2022-12-04T14:13:20.867Z,97.93
2022-12-04T14:14:30.726Z,97.91
2022-12-04T14:15:38.042Z,97.92
2022-12-04T14:16:42.993Z,98.02
2022-12-04T14:17:57.730Z,97.98
2022-12-04T14:19:02.964Z,97.90
2022-12-04T14:20:30.873Z,98.05
2022-12-04T14:21:42.902Z,98.09
2022-12-04T14:22:46.140Z,98.23
2022-12-04T14:23:50.769Z,98.23
2022-12-04T14:25:06.024Z,98.23
2022-12-04T14:26:26.452Z,97.95
2022-12-04T14:27:42.098Z,98.00
2022-12-04T14:28:45.613Z,98.09
2022-12-04T14:29:54.716Z,97.87
2022-12-04T14:30:58.141Z,97.99
2022-12-04T14:32:09.906Z,98.25
2022-12-04T14:33:20.734Z,97.96
2022-12-04T14:34:31.929Z,98.01
2022-12-04T14:35:43.917Z,98.10
2022-12-04T14:36:48.516Z,98.15
2022-12-04T14:37:56.459Z,98.09
2022-12-04T14:39:05.546Z,97.94
2022-12-04T14:40:21.144Z,97.83
2022-12-04T14:41:26.922Z,97.96
2022-12-04T14:42:40.424Z,98.13
2022-12-04T14:43:45.314Z,97.94
2022-12-04T14:44:54.116Z,98.00
2022-12-04T14:46:15.795Z,98.12
2022-12-04T14:47:38.678Z,98.03
2022-12-04T14:49:04.056Z,98.24
2022-12-04T14:50:28.279Z,98.07
2022-12-04T14:51:38.218Z,97.99
2022-12-04T14:52:59.678Z,98.21
2022-12-04T14:54:18.724Z,98.03